Погода Пенхамона 2 недели

Гуанахуато, Мексика

24 февраля-08 марта
  • 24февраля
    Сегодня
    +11°
    +32°
    Практически безоблачно
    ВремяПогодаТемператураВлажностьДавлениеВетер, м/сВероятность осадков
    00:00Ясно и безоблачно+16°C71 %622 мм2.9 м/с2 %
    03:00Ясно и безоблачно+13°C76 %621 мм3.1 м/с2 %
    06:00Ясно и безоблачно+12°C86 %621 мм2.9 м/с2 %
    09:00Ясно и безоблачно+14°C67 %623 мм2.7 м/с2 %
    12:00Ясно и безоблачно+25°C27 %626 мм1.3 м/с2 %
    15:00Практически безоблачно+31°C13 %624 мм0.9 м/с2 %
    18:00Практически безоблачно+30°C13 %623 мм0.5 м/с2 %
    21:00Практически безоблачно+23°C24 %622 мм1.4 м/с2 %
  • 25февраля
    Воскресенье
    +14°
    +32°
    Ясно и безоблачно
    ВремяПогодаТемператураВлажностьДавлениеВетер, м/сВероятность осадков
    00:00Небольшая облачность+18°C43 %623 мм2.6 м/с2 %
    03:00Небольшая облачность+15°C59 %622 мм1.8 м/с2 %
    06:00Ясно и безоблачно+12°C66 %621 мм1.6 м/с2 %
    09:00Практически безоблачно+16°C48 %624 мм1.1 м/с2 %
    12:00Ясно и безоблачно+27°C21 %626 мм1.3 м/с2 %
    15:00Ясно и безоблачно+31°C8 %625 мм2.4 м/с2 %
    18:00Ясно и безоблачно+30°C9 %624 мм2.2 м/с2 %
    21:00Ясно и безоблачно+25°C13 %624 мм1.1 м/с2 %
  • 26февраля
    Понедельник
    +12°
    +32°
    Ясно и безоблачно
    ВремяПогодаТемператураВлажностьДавлениеВетер, м/сВероятность осадков
    00:00Ясно и безоблачно+20°C24 %624 мм1.6 м/с2 %
    03:00Ясно и безоблачно+17°C36 %622 мм1.5 м/с2 %
    06:00Ясно и безоблачно+16°C40 %622 мм0.9 м/с2 %
    09:00Ясно и безоблачно+18°C31 %624 мм1.0 м/с2 %
    12:00Ясно и безоблачно+27°C15 %626 мм1.7 м/с2 %
    15:00Ясно и безоблачно+31°C9 %624 мм1.5 м/с2 %
    18:00Ясно и безоблачно+30°C10 %623 мм1.4 м/с2 %
    21:00Ясно и безоблачно+23°C18 %622 мм3.1 м/с2 %
  • 27февраля
    Вторник
    +13°
    +32°
    Ясно и безоблачно
    ВремяПогодаТемператураВлажностьДавлениеВетер, м/сВероятность осадков
    00:00Ясно и безоблачно+19°C43 %622 мм3.7 м/с2 %
    03:00Облачно с прояснениями+15°C61 %620 мм1.7 м/с2 %
    06:00Небольшая облачность+14°C64 %620 мм2.2 м/с2 %
    09:00Ясно и безоблачно+19°C45 %623 мм1.2 м/с2 %
    12:00Ясно и безоблачно+28°C19 %625 мм0.4 м/с2 %
    15:00Ясно и безоблачно+31°C13 %623 мм2.3 м/с2 %
    18:00Ясно и безоблачно+30°C14 %622 мм2.9 м/с2 %
    21:00Ясно и безоблачно+24°C23 %621 мм3.0 м/с2 %
  • 28февраля
    Среда
    +15°
    +32°
    Облачно с прояснениями
    ВремяПогодаТемператураВлажностьДавлениеВетер, м/сВероятность осадков
    00:00Ясно и безоблачно+19°C34 %621 мм3.4 м/с2 %
    03:00Ясно и безоблачно+16°C37 %620 мм2.1 м/с2 %
    06:00Ясно и безоблачно+14°C37 %619 мм1.8 м/с2 %
    09:00Практически безоблачно+19°C29 %623 мм1.0 м/с2 %
    12:00Небольшая облачность+28°C14 %625 мм0.6 м/с2 %
    15:00Облачно с прояснениями+31°C10 %623 мм3.2 м/с2 %
    18:00Ясно и безоблачно+30°C11 %622 мм1.7 м/с2 %
    21:00Ясно и безоблачно+23°C18 %622 мм3.0 м/с2 %
Мы используем cookies
Соглашаюсь